createdAt,value
2018-07-09T00:02:06.208Z,5.90
2018-07-09T00:04:34.289Z,6.20
2018-07-09T00:07:02.314Z,7.17
2018-07-09T00:09:30.297Z,6.20
2018-07-09T00:11:58.289Z,6.73
2018-07-09T00:14:26.295Z,6.30
2018-07-09T00:16:54.273Z,7.00
2018-07-09T00:19:22.262Z,7.10
2018-07-09T00:21:50.236Z,7.10
2018-07-09T00:24:18.267Z,7.33
2018-07-09T00:26:46.356Z,7.67
2018-07-09T00:29:14.345Z,7.00
2018-07-09T00:31:42.324Z,6.80
2018-07-09T00:34:10.300Z,7.30
2018-07-09T00:36:38.288Z,7.10
2018-07-09T00:39:06.818Z,7.23
2018-07-09T00:41:36.033Z,7.90
2018-07-09T00:44:04.050Z,7.30
2018-07-09T00:46:32.065Z,6.70
2018-07-09T00:49:00.553Z,7.57
2018-07-09T00:51:28.565Z,8.23
2018-07-09T00:53:57.369Z,6.23
2018-07-09T00:56:25.377Z,7.93
2018-07-09T00:58:53.411Z,7.67
2018-07-09T01:01:21.418Z,7.70
2018-07-09T01:03:49.413Z,7.00
2018-07-09T01:06:17.428Z,7.53
2018-07-09T01:08:45.474Z,8.20
2018-07-09T01:11:25.254Z,8.30
2018-07-09T01:13:53.253Z,7.70
2018-07-09T01:16:21.289Z,8.47
2018-07-09T01:18:49.294Z,8.60
2018-07-09T01:21:17.296Z,9.43
2018-07-09T01:23:45.313Z,9.20
2018-07-09T01:26:13.327Z,8.40
2018-07-09T01:28:42.053Z,9.90
2018-07-09T01:31:10.085Z,8.00
2018-07-09T01:33:38.056Z,9.67
2018-07-09T01:36:06.061Z,8.97
2018-07-09T01:38:34.072Z,8.90
2018-07-09T01:41:02.097Z,8.63
2018-07-09T01:43:30.113Z,9.17
2018-07-09T01:45:58.108Z,10.27
2018-07-09T01:48:26.640Z,9.43
2018-07-09T01:50:54.658Z,10.00
2018-07-09T01:53:22.644Z,9.43
2018-07-09T01:55:50.627Z,10.13
2018-07-09T01:58:18.623Z,9.87
2018-07-09T02:00:46.718Z,10.50
2018-07-09T02:03:14.695Z,10.63
2018-07-09T02:05:42.698Z,11.17
2018-07-09T02:08:10.731Z,11.37
2018-07-09T02:10:38.849Z,10.77
2018-07-09T02:13:07.173Z,10.80
2018-07-09T02:15:35.169Z,10.13
2018-07-09T02:18:03.154Z,11.00
2018-07-09T02:20:31.229Z,11.00
2018-07-09T02:22:59.173Z,10.00
2018-07-09T02:25:27.288Z,11.00
2018-07-09T02:27:55.356Z,12.43
2018-07-09T02:30:23.382Z,11.50
2018-07-09T02:32:51.356Z,11.57
2018-07-09T02:35:19.342Z,10.77
2018-07-09T02:37:47.353Z,11.90
2018-07-09T02:40:15.341Z,10.80
2018-07-09T02:42:43.498Z,12.77
2018-07-09T02:45:11.509Z,11.40
2018-07-09T02:47:39.528Z,12.37
2018-07-09T02:50:07.533Z,11.97
2018-07-09T02:52:35.525Z,11.17
2018-07-09T02:55:03.493Z,11.37
2018-07-09T02:57:31.549Z,11.70
2018-07-09T02:59:59.551Z,12.03
2018-07-09T03:02:27.600Z,11.77
2018-07-09T03:04:55.701Z,11.30
2018-07-09T03:07:24.398Z,10.70
2018-07-09T03:09:52.389Z,12.13
2018-07-09T03:12:20.393Z,11.73
2018-07-09T03:14:48.377Z,11.97
2018-07-09T03:17:16.363Z,11.73
2018-07-09T03:19:44.368Z,12.90
2018-07-09T03:22:12.373Z,11.57
2018-07-09T03:24:40.409Z,10.90
2018-07-09T03:27:08.476Z,11.50
2018-07-09T03:29:36.650Z,11.37
2018-07-09T03:32:04.769Z,11.68
2018-07-09T03:34:32.821Z,11.90
2018-07-09T03:37:00.789Z,11.60
2018-07-09T03:39:28.841Z,10.90
2018-07-09T03:41:56.844Z,11.73
2018-07-09T03:44:24.853Z,12.33
2018-07-09T03:46:52.854Z,10.63
2018-07-09T03:49:20.861Z,11.97
2018-07-09T03:51:48.868Z,11.23
2018-07-09T03:54:16.847Z,11.67
2018-07-09T03:56:44.845Z,11.70
2018-07-09T03:59:12.825Z,11.20
2018-07-09T04:01:40.796Z,10.70
2018-07-09T04:04:08.809Z,12.10
2018-07-09T04:06:36.774Z,12.17
2018-07-09T04:09:04.796Z,12.10
2018-07-09T04:11:32.788Z,11.70
2018-07-09T04:14:00.981Z,12.30
2018-07-09T04:16:28.996Z,12.57
2018-07-09T04:18:56.997Z,12.10
2018-07-09T04:21:24.993Z,13.70
2018-07-09T04:23:53.017Z,12.90
2018-07-09T04:26:21.068Z,13.03
2018-07-09T04:28:49.208Z,12.30
2018-07-09T04:31:17.221Z,13.93
2018-07-09T04:33:45.313Z,13.47
2018-07-09T04:36:13.325Z,14.37
2018-07-09T04:38:41.336Z,13.03
2018-07-09T04:41:09.873Z,12.90
2018-07-09T04:43:37.868Z,13.70
2018-07-09T04:46:06.049Z,13.53
2018-07-09T04:48:34.048Z,13.40
2018-07-09T04:51:03.278Z,13.50
2018-07-09T04:53:31.300Z,14.20
2018-07-09T04:55:59.291Z,14.13
2018-07-09T04:58:27.268Z,13.83
2018-07-09T05:00:55.289Z,13.50
2018-07-09T05:03:29.929Z,14.43
2018-07-09T05:05:57.985Z,15.33
2018-07-09T05:08:25.981Z,14.30
2018-07-09T05:10:53.981Z,14.50
2018-07-09T05:13:21.980Z,14.80
2018-07-09T05:15:49.976Z,14.63
2018-07-09T05:18:17.964Z,13.07
2018-07-09T05:20:46.020Z,12.97
2018-07-09T05:23:13.945Z,13.70
2018-07-09T05:25:41.983Z,12.67
2018-07-09T05:28:10.463Z,11.53
2018-07-09T05:30:38.461Z,11.08
2018-07-09T05:33:06.480Z,11.30
2018-07-09T05:35:34.428Z,9.80
2018-07-09T05:38:02.444Z,10.23
2018-07-09T05:40:30.460Z,8.63
2018-07-09T05:42:58.584Z,7.50
2018-07-09T05:45:26.581Z,8.67
2018-07-09T05:47:54.590Z,7.67
2018-07-09T05:50:22.688Z,7.33
2018-07-09T05:52:50.689Z,9.73
2018-07-09T05:55:18.701Z,8.10
2018-07-09T05:57:46.676Z,8.47
2018-07-09T06:00:14.690Z,8.40
2018-07-09T06:02:42.817Z,9.73
2018-07-09T06:05:10.802Z,9.77
2018-07-09T06:07:38.784Z,10.90
2018-07-09T06:10:06.770Z,11.30
2018-07-09T06:12:34.757Z,10.03
2018-07-09T06:15:02.824Z,11.10
2018-07-09T06:17:30.741Z,12.10
2018-07-09T06:19:59.678Z,11.60
2018-07-09T06:22:27.679Z,12.30
2018-07-09T06:24:55.677Z,11.37
2018-07-09T06:27:23.840Z,11.70
2018-07-09T06:29:51.833Z,11.30
2018-07-09T06:32:19.841Z,11.10
2018-07-09T06:34:47.870Z,11.07
2018-07-09T06:37:15.852Z,10.73
2018-07-09T06:39:43.857Z,10.47
2018-07-09T06:42:11.837Z,9.83
2018-07-09T06:44:39.892Z,10.77
2018-07-09T06:47:07.852Z,9.73
2018-07-09T06:49:35.852Z,10.30
2018-07-09T06:52:04.340Z,8.50
2018-07-09T06:54:32.316Z,8.77
2018-07-09T06:57:00.288Z,8.93
2018-07-09T06:59:28.284Z,9.90
2018-07-09T07:01:56.265Z,8.03
2018-07-09T07:04:24.362Z,8.10
2018-07-09T07:06:52.346Z,8.10
2018-07-09T07:09:20.353Z,7.70
2018-07-09T07:11:48.338Z,8.43
2018-07-09T07:14:16.390Z,8.50
2018-07-09T07:16:44.345Z,8.37
2018-07-09T07:19:12.349Z,7.63
2018-07-09T07:21:40.360Z,7.30
2018-07-09T07:24:08.560Z,7.80
2018-07-09T07:26:36.595Z,7.50
2018-07-09T07:29:04.681Z,7.47
2018-07-09T07:31:32.649Z,7.57
2018-07-09T07:34:00.633Z,7.63
2018-07-09T07:36:28.609Z,7.73
2018-07-09T07:38:56.576Z,8.73
2018-07-09T07:41:24.576Z,6.80
2018-07-09T07:43:52.580Z,7.93
2018-07-09T07:46:20.566Z,8.83
2018-07-09T07:48:48.557Z,8.67
2018-07-09T07:51:16.528Z,8.23
2018-07-09T07:53:44.512Z,8.03
2018-07-09T07:56:12.511Z,8.60
2018-07-09T07:58:40.504Z,9.37
2018-07-09T08:01:08.496Z,9.13
2018-07-09T08:03:36.489Z,9.40
2018-07-09T08:06:05.564Z,9.43
2018-07-09T08:08:33.545Z,10.00
2018-07-09T08:11:10.910Z,8.77
2018-07-09T08:13:29.597Z,9.40
2018-07-09T08:15:57.538Z,9.30
2018-07-09T08:18:25.524Z,10.23
2018-07-09T08:20:53.509Z,10.13
2018-07-09T08:23:21.509Z,10.10
2018-07-09T08:25:49.521Z,9.70
2018-07-09T08:28:17.554Z,10.40
2018-07-09T08:30:45.531Z,9.40
2018-07-09T08:33:13.529Z,9.00
2018-07-09T08:35:41.508Z,8.20
2018-07-09T08:38:09.488Z,6.60
2018-07-09T08:40:37.499Z,7.87
2018-07-09T08:43:05.585Z,6.77
2018-07-09T08:45:33.588Z,5.47
2018-07-09T08:48:01.577Z,6.27
2018-07-09T08:50:29.560Z,6.70
2018-07-09T08:52:57.548Z,5.50
2018-07-09T08:55:26.417Z,5.90
2018-07-09T08:57:54.407Z,5.23
2018-07-09T09:00:22.893Z,5.80
2018-07-09T09:02:51.121Z,5.30
2018-07-09T09:05:19.112Z,6.40
2018-07-09T09:07:47.136Z,6.23
2018-07-09T09:10:15.198Z,5.47
2018-07-09T09:12:43.197Z,4.70
2018-07-09T09:15:11.248Z,5.10
2018-07-09T09:17:39.249Z,4.53
2018-07-09T09:20:07.302Z,5.03
2018-07-09T09:22:35.288Z,6.37
2018-07-09T09:25:03.292Z,5.33
2018-07-09T09:27:31.277Z,5.60
2018-07-09T09:29:59.288Z,5.37
2018-07-09T09:32:27.272Z,5.53
2018-07-09T09:34:55.291Z,4.73
2018-07-09T09:37:23.310Z,4.20
2018-07-09T09:39:51.550Z,4.63
2018-07-09T09:42:19.541Z,3.87
2018-07-09T09:44:47.534Z,3.33
2018-07-09T09:47:15.546Z,2.70
2018-07-09T09:49:43.538Z,3.20
2018-07-09T09:52:11.625Z,2.40
2018-07-09T09:54:39.640Z,2.50
2018-07-09T09:57:07.696Z,2.93
2018-07-09T09:59:35.712Z,2.63
2018-07-09T10:02:03.729Z,2.50
2018-07-09T10:04:32.300Z,2.40
2018-07-09T10:07:00.294Z,2.47
2018-07-09T10:09:28.316Z,2.23
2018-07-09T10:11:56.345Z,2.50
2018-07-09T10:14:24.340Z,2.47
2018-07-09T10:16:52.487Z,2.23
2018-07-09T10:19:20.523Z,2.00
2018-07-09T10:21:48.526Z,2.33
2018-07-09T10:24:16.550Z,1.70
2018-07-09T10:26:44.578Z,2.00
2018-07-09T10:29:12.604Z,1.67
2018-07-09T10:31:40.625Z,1.80
2018-07-09T10:34:08.633Z,2.07
2018-07-09T10:36:36.649Z,1.97
2018-07-09T10:39:05.593Z,1.93
2018-07-09T10:41:33.620Z,1.47
2018-07-09T10:44:01.618Z,2.33
2018-07-09T10:46:30.458Z,2.27
2018-07-09T10:48:58.468Z,2.00
2018-07-09T10:51:26.513Z,1.83
2018-07-09T10:53:54.500Z,1.57
2018-07-09T10:56:22.515Z,2.60
2018-07-09T10:58:50.532Z,2.20
2018-07-09T11:01:18.520Z,2.10
2018-07-09T11:03:46.520Z,2.23
2018-07-09T11:06:14.540Z,1.93
2018-07-09T11:08:42.529Z,2.00
2018-07-09T11:11:10.552Z,2.23
2018-07-09T11:13:38.554Z,2.37
2018-07-09T11:16:06.570Z,2.10
2018-07-09T11:18:34.600Z,2.10
2018-07-09T11:21:02.609Z,2.07
2018-07-09T11:23:30.652Z,3.67
2018-07-09T11:25:58.668Z,2.30
2018-07-09T11:28:26.687Z,2.10
2018-07-09T11:30:54.656Z,1.80
2018-07-09T11:33:22.644Z,2.17
2018-07-09T11:35:50.645Z,2.10
2018-07-09T11:38:18.636Z,2.37
2018-07-09T11:40:46.648Z,3.40
2018-07-09T11:43:14.630Z,2.07
2018-07-09T11:45:42.629Z,2.00
2018-07-09T11:48:10.663Z,3.23
2018-07-09T11:50:38.749Z,1.57
2018-07-09T11:53:06.697Z,1.87
2018-07-09T11:55:34.694Z,1.67
2018-07-09T11:58:02.692Z,2.07
2018-07-09T12:00:30.678Z,1.77
2018-07-09T12:02:58.672Z,3.10
2018-07-09T12:05:26.689Z,1.83
2018-07-09T12:07:54.724Z,2.00
2018-07-09T12:10:22.729Z,1.93
2018-07-09T12:12:50.730Z,1.43
2018-07-09T12:15:18.729Z,1.80
2018-07-09T12:17:46.714Z,1.50
2018-07-09T12:20:14.798Z,1.80
2018-07-09T12:22:42.977Z,1.87
2018-07-09T12:25:10.989Z,1.70
2018-07-09T12:27:39.064Z,1.53
2018-07-09T12:30:07.053Z,1.90
2018-07-09T12:32:35.056Z,1.30
2018-07-09T12:35:03.069Z,1.47
2018-07-09T12:37:31.104Z,1.83
2018-07-09T12:39:59.152Z,2.00
2018-07-09T12:42:27.637Z,2.23
2018-07-09T12:44:55.627Z,1.70
2018-07-09T12:47:23.645Z,1.70
2018-07-09T12:49:51.670Z,1.43
2018-07-09T12:52:19.697Z,1.70
2018-07-09T12:54:47.713Z,1.47
2018-07-09T12:57:15.709Z,1.87
2018-07-09T12:59:43.720Z,1.60
2018-07-09T13:02:11.708Z,1.63
2018-07-09T13:04:39.747Z,1.80
2018-07-09T13:07:07.778Z,1.40
2018-07-09T13:09:35.816Z,1.77
2018-07-09T13:12:03.806Z,2.23
2018-07-09T13:14:31.914Z,1.97
2018-07-09T13:16:59.879Z,2.50
2018-07-09T13:19:27.972Z,1.87
2018-07-09T13:21:56.060Z,1.80
2018-07-09T13:24:24.080Z,1.70
2018-07-09T13:26:52.093Z,1.60
2018-07-09T13:29:20.116Z,1.80
2018-07-09T13:31:48.856Z,2.07
2018-07-09T13:34:16.849Z,2.27
2018-07-09T13:36:44.860Z,2.00
2018-07-09T13:39:12.865Z,1.50
2018-07-09T13:41:40.877Z,1.60
2018-07-09T13:44:08.882Z,1.50
2018-07-09T13:46:36.938Z,1.50
2018-07-09T13:49:04.979Z,1.87
2018-07-09T13:51:32.916Z,1.43
2018-07-09T13:54:00.936Z,1.80
2018-07-09T13:56:29.041Z,1.73
2018-07-09T13:58:57.033Z,1.90
2018-07-09T14:01:25.012Z,1.70
2018-07-09T14:03:53.004Z,2.50
2018-07-09T14:06:20.993Z,3.07
2018-07-09T14:08:49.007Z,1.90
2018-07-09T14:11:17.005Z,1.87
2018-07-09T14:13:45.001Z,1.73
2018-07-09T14:16:13.017Z,2.83
2018-07-09T14:18:41.702Z,1.73
2018-07-09T14:21:09.736Z,2.67
2018-07-09T14:23:37.777Z,1.97
2018-07-09T14:26:05.773Z,2.50
2018-07-09T14:28:33.769Z,1.50
2018-07-09T14:31:01.738Z,2.30
2018-07-09T14:33:29.736Z,1.90
2018-07-09T14:35:57.727Z,1.67
2018-07-09T14:38:25.744Z,1.77
2018-07-09T14:40:53.736Z,2.07
2018-07-09T14:43:21.725Z,2.47
2018-07-09T14:45:49.707Z,2.80
2018-07-09T14:48:17.699Z,1.80
2018-07-09T14:50:45.676Z,1.97
2018-07-09T14:53:13.689Z,1.63
2018-07-09T14:55:41.676Z,2.43
2018-07-09T14:58:09.688Z,2.10
2018-07-09T15:00:37.695Z,1.53
2018-07-09T15:03:05.739Z,1.60
2018-07-09T15:05:33.764Z,1.60
2018-07-09T15:08:01.725Z,1.60
2018-07-09T15:10:29.700Z,2.83
2018-07-09T15:12:57.696Z,2.37
2018-07-09T15:15:25.690Z,2.13
2018-07-09T15:17:53.691Z,2.00
2018-07-09T15:20:21.719Z,2.10
2018-07-09T15:22:50.379Z,2.27
2018-07-09T15:25:18.387Z,2.67
2018-07-09T15:27:46.457Z,2.27
2018-07-09T15:30:14.465Z,2.17
2018-07-09T15:32:42.465Z,1.90
2018-07-09T15:35:10.522Z,1.97
2018-07-09T15:37:38.503Z,1.73
2018-07-09T15:40:06.528Z,2.20
2018-07-09T15:42:34.553Z,1.80
2018-07-09T15:45:02.500Z,2.23
2018-07-09T15:47:30.533Z,2.30
2018-07-09T15:49:58.541Z,4.33
2018-07-09T15:52:26.524Z,1.80
2018-07-09T15:54:54.532Z,1.67
2018-07-09T15:57:22.511Z,2.40
2018-07-09T15:59:50.519Z,2.20
2018-07-09T16:02:18.524Z,1.50
2018-07-09T16:04:46.544Z,1.93
2018-07-09T16:07:14.629Z,2.07
2018-07-09T16:09:42.655Z,2.07
2018-07-09T16:12:10.864Z,1.70
2018-07-09T16:14:38.972Z,1.50
2018-07-09T16:17:06.973Z,2.60
2018-07-09T16:19:35.093Z,2.30
2018-07-09T16:22:03.492Z,1.83
2018-07-09T16:24:31.514Z,1.80
2018-07-09T16:26:59.552Z,1.40
2018-07-09T16:29:27.636Z,1.70
2018-07-09T16:31:55.616Z,1.37
2018-07-09T16:34:23.637Z,1.90
2018-07-09T16:36:51.668Z,1.60
2018-07-09T16:39:19.838Z,2.00
2018-07-09T16:41:47.862Z,1.63
2018-07-09T16:44:15.862Z,1.43
2018-07-09T16:46:43.906Z,1.90
2018-07-09T16:49:11.864Z,2.10
2018-07-09T16:51:39.894Z,1.70
2018-07-09T16:54:07.868Z,1.53
2018-07-09T16:56:35.875Z,1.50
2018-07-09T16:59:03.973Z,1.40
2018-07-09T17:01:32.173Z,2.00
2018-07-09T17:04:00.232Z,1.90
2018-07-09T17:06:28.245Z,2.10
2018-07-09T17:08:56.249Z,1.73
2018-07-09T17:11:24.410Z,1.93
2018-07-09T17:13:52.404Z,1.47
2018-07-09T17:16:20.465Z,1.53
2018-07-09T17:18:48.476Z,1.70
2018-07-09T17:21:16.501Z,1.80
2018-07-09T17:23:44.500Z,1.43
2018-07-09T17:26:12.533Z,1.73
2018-07-09T17:28:40.564Z,1.80
2018-07-09T17:31:08.588Z,2.10
2018-07-09T17:33:36.593Z,2.10
2018-07-09T17:36:04.600Z,1.90
2018-07-09T17:38:32.585Z,1.40
2018-07-09T17:41:00.565Z,1.50
2018-07-09T17:43:28.556Z,2.80
2018-07-09T17:45:56.548Z,2.13
2018-07-09T17:48:24.528Z,1.67
2018-07-09T17:50:52.533Z,1.37
2018-07-09T17:53:20.511Z,1.70
2018-07-09T17:55:51.017Z,2.33
2018-07-09T17:58:19.231Z,1.80
2018-07-09T18:00:47.243Z,2.57
2018-07-09T18:03:15.221Z,1.93
2018-07-09T18:05:43.204Z,2.27
2018-07-09T18:08:11.219Z,2.20
2018-07-09T18:10:39.327Z,3.57
2018-07-09T18:13:07.292Z,2.10
2018-07-09T18:15:35.431Z,1.93
2018-07-09T18:18:03.672Z,2.47
2018-07-09T18:20:31.699Z,2.33
2018-07-09T18:22:59.770Z,2.00
2018-07-09T18:25:27.767Z,2.53
2018-07-09T18:27:55.765Z,1.53
2018-07-09T18:30:23.744Z,2.20
2018-07-09T18:32:51.750Z,1.97
2018-07-09T18:35:19.773Z,1.70
2018-07-09T18:37:47.734Z,3.37
2018-07-09T18:40:15.726Z,1.90
2018-07-09T18:42:43.740Z,2.53
2018-07-09T18:45:12.343Z,1.70
2018-07-09T18:47:40.390Z,1.87
2018-07-09T18:50:08.490Z,2.30
2018-07-09T18:52:37.272Z,1.87
2018-07-09T18:55:05.449Z,2.30
2018-07-09T18:57:33.500Z,2.37
2018-07-09T19:00:01.566Z,2.33
2018-07-09T19:02:29.572Z,2.10
2018-07-09T19:04:57.588Z,1.93
2018-07-09T19:07:27.128Z,1.57
2018-07-09T19:09:55.197Z,2.53
2018-07-09T19:12:23.360Z,1.80
2018-07-09T19:14:51.748Z,2.30
2018-07-09T19:17:59.773Z,1.93
2018-07-09T19:20:39.166Z,2.20
2018-07-09T19:23:07.156Z,2.07
2018-07-09T19:25:35.128Z,1.80
2018-07-09T19:28:02.602Z,2.20
2018-07-09T19:30:29.636Z,1.90
2018-07-09T19:32:56.678Z,1.70
2018-07-09T19:35:23.722Z,2.27
2018-07-09T19:37:51.072Z,1.97
2018-07-09T19:40:17.828Z,1.87
2018-07-09T19:42:44.870Z,1.83
2018-07-09T19:45:11.926Z,1.73
2018-07-09T19:47:39.005Z,3.10
2018-07-09T19:50:06.014Z,1.70
2018-07-09T19:52:33.065Z,2.00
2018-07-09T19:55:00.135Z,2.03
2018-07-09T19:57:27.169Z,1.93
2018-07-09T19:59:54.196Z,2.10
2018-07-09T20:02:21.253Z,1.97
2018-07-09T20:04:48.284Z,1.90
2018-07-09T20:07:15.397Z,1.83
2018-07-09T20:09:47.933Z,1.90
2018-07-09T20:12:20.489Z,2.30
2018-07-09T20:14:53.076Z,1.60
2018-07-09T20:17:25.313Z,1.77
2018-07-09T20:19:52.368Z,2.67
2018-07-09T20:22:19.421Z,1.60
2018-07-09T20:24:46.458Z,1.80
2018-07-09T20:27:13.533Z,2.87
2018-07-09T20:29:40.571Z,3.07
2018-07-09T20:32:07.643Z,2.33
2018-07-09T20:34:34.668Z,1.60
2018-07-09T20:37:01.710Z,2.50
2018-07-09T20:39:28.779Z,1.90
2018-07-09T20:41:56.653Z,1.30
2018-07-09T20:44:23.676Z,1.63
2018-07-09T20:46:50.741Z,1.83
2018-07-09T20:49:17.785Z,2.80
2018-07-09T20:51:44.841Z,1.77
2018-07-09T20:54:11.900Z,2.60
2018-07-09T20:56:38.937Z,1.37
2018-07-09T20:59:05.997Z,2.00
2018-07-09T21:01:33.034Z,2.27
2018-07-09T21:04:05.380Z,2.00
2018-07-09T21:06:32.452Z,2.00
2018-07-09T21:08:59.665Z,2.20
2018-07-09T21:11:26.762Z,1.70
2018-07-09T21:13:53.821Z,1.70
2018-07-09T21:16:20.970Z,2.00
2018-07-09T21:18:47.899Z,1.67
2018-07-09T21:21:14.961Z,1.57
2018-07-09T21:23:42.021Z,2.10
2018-07-09T21:26:09.063Z,1.30
2018-07-09T21:28:36.217Z,2.00
2018-07-09T21:31:03.216Z,1.40
2018-07-09T21:33:30.264Z,1.27
2018-07-09T21:35:57.329Z,1.70
2018-07-09T21:38:24.390Z,1.50
2018-07-09T21:40:51.415Z,1.63
2018-07-09T21:43:18.476Z,1.70
2018-07-09T21:45:45.511Z,1.80
2018-07-09T21:48:12.558Z,1.60
2018-07-09T21:50:39.620Z,1.70
2018-07-09T21:53:06.657Z,1.30
2018-07-09T21:55:33.725Z,1.23
2018-07-09T21:58:00.792Z,1.43
2018-07-09T22:00:27.825Z,1.60
2018-07-09T22:02:54.881Z,1.30
2018-07-09T22:05:22.613Z,3.40
2018-07-09T22:07:49.669Z,1.50
2018-07-09T22:10:16.692Z,1.60
2018-07-09T22:12:43.876Z,1.90
2018-07-09T22:15:10.902Z,1.70
2018-07-09T22:17:38.277Z,1.60
2018-07-09T22:20:05.321Z,1.67
2018-07-09T22:22:32.742Z,1.63
2018-07-09T22:24:59.798Z,1.50
2018-07-09T22:27:27.081Z,1.40
2018-07-09T22:29:54.113Z,1.40
2018-07-09T22:32:22.550Z,2.37
2018-07-09T22:34:50.633Z,1.43
2018-07-09T22:37:18.768Z,1.90
2018-07-09T22:39:46.784Z,1.43
2018-07-09T22:42:14.896Z,1.43
2018-07-09T22:44:42.947Z,1.40
2018-07-09T22:47:10.945Z,0.93
2018-07-09T22:49:38.932Z,1.40
2018-07-09T22:52:06.938Z,1.37
2018-07-09T22:54:35.241Z,1.67
2018-07-09T22:57:03.249Z,1.60
2018-07-09T22:59:31.245Z,2.07
2018-07-09T23:01:59.265Z,1.77
2018-07-09T23:04:27.271Z,1.60
2018-07-09T23:06:55.276Z,2.27
2018-07-09T23:09:49.312Z,2.50
2018-07-09T23:13:28.774Z,1.97
2018-07-09T23:16:37.489Z,1.90
2018-07-09T23:19:18.833Z,1.83
2018-07-09T23:21:59.356Z,2.67
2018-07-09T23:24:26.853Z,1.83
2018-07-09T23:26:54.367Z,2.37
2018-07-09T23:29:21.409Z,2.03
2018-07-09T23:31:48.880Z,1.90
2018-07-09T23:34:16.529Z,1.90
2018-07-09T23:36:43.633Z,2.50
2018-07-09T23:39:11.132Z,2.00
2018-07-09T23:41:38.189Z,2.03
2018-07-09T23:44:05.550Z,2.37
2018-07-09T23:46:32.797Z,2.60
2018-07-09T23:48:59.963Z,2.83
2018-07-09T23:51:27.036Z,2.83
2018-07-09T23:53:54.464Z,2.60
2018-07-09T23:58:38.195Z,3.17
